<?xml version="1.0" encoding="UTF-8" standalone="no" ?>
<gpx xmlns="http://www.topografix.com/GPX/1/1" xmlns:xsi="http://www.w3.org/2001/XMLSchema-instance" xsi:schemaLocation="http://www.topografix.com/GPX/1/1 http://www.topografix.com/GPX/1/1/gpx.xsd" version="1.1" creator="VisuGPX - https://www.visugpx.com">
  <metadata>
    <name>DH Plateau des Petites Roches</name>
  </metadata>
  <wpt lat="45.31652" lon="5.89215">
    <ele>909.4</ele>
  </wpt>
  <wpt lat="45.31652" lon="5.89215">
    <ele>909.4</ele>
  </wpt>
  <trk>
    <name><![CDATA[DH Plateau des Petites Roches_11]]></name>
    <extensions>
      <line xmlns="http://www.topografix.com/GPX/gpx_style/0/2">
        <color>888800</color>
        <width>4</width>
      </line>
    </extensions>
    <trkseg>
      <trkpt lat="45.31669" lon="5.87838">
        <ele>1128.506699</ele>
        <time>2022-03-22T16:30:52.000Z</time>
      </trkpt>
      <trkpt lat="45.31662" lon="5.87843">
        <ele>1126.654151</ele>
        <time>2022-03-22T16:30:56.000Z</time>
      </trkpt>
      <trkpt lat="45.31656" lon="5.87845">
        <ele>1125.432223</ele>
        <time>2022-03-22T16:30:58.000Z</time>
      </trkpt>
      <trkpt lat="45.31651" lon="5.87844">
        <ele>1124.217603</ele>
        <time>2022-03-22T16:31:00.000Z</time>
      </trkpt>
      <trkpt lat="45.31644" lon="5.87844">
        <ele>1122.778189</ele>
        <time>2022-03-22T16:31:02.000Z</time>
      </trkpt>
      <trkpt lat="45.31642" lon="5.87844">
        <ele>1122.193233</ele>
        <time>2022-03-22T16:31:03.000Z</time>
      </trkpt>
      <trkpt lat="45.31639" lon="5.87846">
        <ele>1121.537718</ele>
        <time>2022-03-22T16:31:04.000Z</time>
      </trkpt>
      <trkpt lat="45.31634" lon="5.87852">
        <ele>1119.971428</ele>
        <time>2022-03-22T16:31:06.000Z</time>
      </trkpt>
      <trkpt lat="45.31628" lon="5.8786">
        <ele>1118.137418</ele>
        <time>2022-03-22T16:31:08.000Z</time>
      </trkpt>
      <trkpt lat="45.31625" lon="5.87865">
        <ele>1117.047046</ele>
        <time>2022-03-22T16:31:10.000Z</time>
      </trkpt>
      <trkpt lat="45.31623" lon="5.87866">
        <ele>1116.742819</ele>
        <time>2022-03-22T16:31:11.000Z</time>
      </trkpt>
      <trkpt lat="45.31623" lon="5.87867">
        <ele>1116.547542</ele>
        <time>2022-03-22T16:31:12.000Z</time>
      </trkpt>
      <trkpt lat="45.31622" lon="5.87868">
        <ele>1116.298001</ele>
        <time>2022-03-22T16:31:13.000Z</time>
      </trkpt>
      <trkpt lat="45.31622" lon="5.87871">
        <ele>1115.878314</ele>
        <time>2022-03-22T16:31:15.000Z</time>
      </trkpt>
      <trkpt lat="45.31621" lon="5.87878">
        <ele>1114.791129</ele>
        <time>2022-03-22T16:31:17.000Z</time>
      </trkpt>
      <trkpt lat="45.31619" lon="5.87886">
        <ele>1113.470303</ele>
        <time>2022-03-22T16:31:19.000Z</time>
      </trkpt>
      <trkpt lat="45.31618" lon="5.87889">
        <ele>1112.836357</ele>
        <time>2022-03-22T16:31:20.000Z</time>
      </trkpt>
      <trkpt lat="45.31613" lon="5.87892">
        <ele>1111.714303</ele>
        <time>2022-03-22T16:31:22.000Z</time>
      </trkpt>
      <trkpt lat="45.31607" lon="5.87893">
        <ele>1110.424384</ele>
        <time>2022-03-22T16:31:24.000Z</time>
      </trkpt>
      <trkpt lat="45.31604" lon="5.87895">
        <ele>1109.687944</ele>
        <time>2022-03-22T16:31:25.000Z</time>
      </trkpt>
      <trkpt lat="45.31603" lon="5.87897">
        <ele>1109.139548</ele>
        <time>2022-03-22T16:31:26.000Z</time>
      </trkpt>
      <trkpt lat="45.31599" lon="5.87901">
        <ele>1108.173666</ele>
        <time>2022-03-22T16:31:28.000Z</time>
      </trkpt>
      <trkpt lat="45.31598" lon="5.87905">
        <ele>1107.500199</ele>
        <time>2022-03-22T16:31:29.000Z</time>
      </trkpt>
      <trkpt lat="45.31597" lon="5.8791">
        <ele>1106.726524</ele>
        <time>2022-03-22T16:31:30.000Z</time>
      </trkpt>
      <trkpt lat="45.31596" lon="5.8792">
        <ele>1105.121127</ele>
        <time>2022-03-22T16:31:32.000Z</time>
      </trkpt>
      <trkpt lat="45.31598" lon="5.87931">
        <ele>1103.332915</ele>
        <time>2022-03-22T16:31:34.000Z</time>
      </trkpt>
      <trkpt lat="45.31601" lon="5.8794">
        <ele>1101.687857</ele>
        <time>2022-03-22T16:31:36.000Z</time>
      </trkpt>
      <trkpt lat="45.31602" lon="5.87947">
        <ele>1100.521042</ele>
        <time>2022-03-22T16:31:38.000Z</time>
      </trkpt>
      <trkpt lat="45.31602" lon="5.87951">
        <ele>1099.915148</ele>
        <time>2022-03-22T16:31:39.000Z</time>
      </trkpt>
      <trkpt lat="45.31601" lon="5.87959">
        <ele>1098.62533</ele>
        <time>2022-03-22T16:31:41.000Z</time>
      </trkpt>
      <trkpt lat="45.316" lon="5.87967">
        <ele>1097.463546</ele>
        <time>2022-03-22T16:31:43.000Z</time>
      </trkpt>
      <trkpt lat="45.316" lon="5.87972">
        <ele>1096.593651</ele>
        <time>2022-03-22T16:31:45.000Z</time>
      </trkpt>
      <trkpt lat="45.31599" lon="5.87977">
        <ele>1095.849465</ele>
        <time>2022-03-22T16:31:47.000Z</time>
      </trkpt>
      <trkpt lat="45.31599" lon="5.87982">
        <ele>1095.092226</ele>
        <time>2022-03-22T16:31:49.000Z</time>
      </trkpt>
      <trkpt lat="45.31599" lon="5.87987">
        <ele>1093.999448</ele>
        <time>2022-03-22T16:31:51.000Z</time>
      </trkpt>
      <trkpt lat="45.31597" lon="5.87996">
        <ele>1092.215281</ele>
        <time>2022-03-22T16:31:53.000Z</time>
      </trkpt>
      <trkpt lat="45.31596" lon="5.88003">
        <ele>1090.752993</ele>
        <time>2022-03-22T16:31:55.000Z</time>
      </trkpt>
      <trkpt lat="45.31597" lon="5.88012">
        <ele>1088.951311</ele>
        <time>2022-03-22T16:31:57.000Z</time>
      </trkpt>
      <trkpt lat="45.31596" lon="5.88016">
        <ele>1088.102502</ele>
        <time>2022-03-22T16:31:58.000Z</time>
      </trkpt>
      <trkpt lat="45.31594" lon="5.88027">
        <ele>1085.719288</ele>
        <time>2022-03-22T16:32:01.000Z</time>
      </trkpt>
      <trkpt lat="45.31592" lon="5.88035">
        <ele>1084.007266</ele>
        <time>2022-03-22T16:32:03.000Z</time>
      </trkpt>
      <trkpt lat="45.3159" lon="5.88046">
        <ele>1081.818731</ele>
        <time>2022-03-22T16:32:06.000Z</time>
      </trkpt>
      <trkpt lat="45.3159" lon="5.88049">
        <ele>1081.089408</ele>
        <time>2022-03-22T16:32:07.000Z</time>
      </trkpt>
      <trkpt lat="45.31591" lon="5.88053">
        <ele>1080.305882</ele>
        <time>2022-03-22T16:32:08.000Z</time>
      </trkpt>
      <trkpt lat="45.31592" lon="5.88058">
        <ele>1079.364237</ele>
        <time>2022-03-22T16:32:09.000Z</time>
      </trkpt>
      <trkpt lat="45.31594" lon="5.88062">
        <ele>1078.293254</ele>
        <time>2022-03-22T16:32:10.000Z</time>
      </trkpt>
      <trkpt lat="45.31596" lon="5.88067">
        <ele>1077.163187</ele>
        <time>2022-03-22T16:32:11.000Z</time>
      </trkpt>
      <trkpt lat="45.31597" lon="5.88072">
        <ele>1076.098046</ele>
        <time>2022-03-22T16:32:12.000Z</time>
      </trkpt>
      <trkpt lat="45.31596" lon="5.88076">
        <ele>1075.249237</ele>
        <time>2022-03-22T16:32:13.000Z</time>
      </trkpt>
      <trkpt lat="45.31594" lon="5.88079">
        <ele>1074.492189</ele>
        <time>2022-03-22T16:32:14.000Z</time>
      </trkpt>
      <trkpt lat="45.31593" lon="5.88082">
        <ele>1073.717066</ele>
        <time>2022-03-22T16:32:15.000Z</time>
      </trkpt>
      <trkpt lat="45.31592" lon="5.88086">
        <ele>1073.012576</ele>
        <time>2022-03-22T16:32:16.000Z</time>
      </trkpt>
      <trkpt lat="45.3159" lon="5.88089">
        <ele>1072.073696</ele>
        <time>2022-03-22T16:32:18.000Z</time>
      </trkpt>
      <trkpt lat="45.31587" lon="5.88092">
        <ele>1071.092894</ele>
        <time>2022-03-22T16:32:20.000Z</time>
      </trkpt>
      <trkpt lat="45.31586" lon="5.88095">
        <ele>1070.478594</ele>
        <time>2022-03-22T16:32:21.000Z</time>
      </trkpt>
      <trkpt lat="45.31586" lon="5.88098">
        <ele>1069.773365</ele>
        <time>2022-03-22T16:32:22.000Z</time>
      </trkpt>
      <trkpt lat="45.31586" lon="5.88104">
        <ele>1068.565933</ele>
        <time>2022-03-22T16:32:24.000Z</time>
      </trkpt>
      <trkpt lat="45.31586" lon="5.88107">
        <ele>1067.996122</ele>
        <time>2022-03-22T16:32:25.000Z</time>
      </trkpt>
      <trkpt lat="45.31587" lon="5.8811">
        <ele>1067.421306</ele>
        <time>2022-03-22T16:32:26.000Z</time>
      </trkpt>
      <trkpt lat="45.31588" lon="5.88113">
        <ele>1066.655964</ele>
        <time>2022-03-22T16:32:27.000Z</time>
      </trkpt>
      <trkpt lat="45.31592" lon="5.88122">
        <ele>1064.644795</ele>
        <time>2022-03-22T16:32:29.000Z</time>
      </trkpt>
      <trkpt lat="45.31592" lon="5.88128">
        <ele>1063.331738</ele>
        <time>2022-03-22T16:32:30.000Z</time>
      </trkpt>
      <trkpt lat="45.31593" lon="5.88134">
        <ele>1062.16348</ele>
        <time>2022-03-22T16:32:31.000Z</time>
      </trkpt>
      <trkpt lat="45.31592" lon="5.88141">
        <ele>1060.852985</ele>
        <time>2022-03-22T16:32:32.000Z</time>
      </trkpt>
      <trkpt lat="45.31592" lon="5.88153">
        <ele>1058.415995</ele>
        <time>2022-03-22T16:32:34.000Z</time>
      </trkpt>
      <trkpt lat="45.31592" lon="5.88158">
        <ele>1057.403597</ele>
        <time>2022-03-22T16:32:35.000Z</time>
      </trkpt>
      <trkpt lat="45.31593" lon="5.88162">
        <ele>1056.526767</ele>
        <time>2022-03-22T16:32:36.000Z</time>
      </trkpt>
      <trkpt lat="45.31593" lon="5.88167">
        <ele>1055.597359</ele>
        <time>2022-03-22T16:32:37.000Z</time>
      </trkpt>
      <trkpt lat="45.31593" lon="5.88172">
        <ele>1054.487535</ele>
        <time>2022-03-22T16:32:38.000Z</time>
      </trkpt>
      <trkpt lat="45.31594" lon="5.88177">
        <ele>1053.514674</ele>
        <time>2022-03-22T16:32:39.000Z</time>
      </trkpt>
      <trkpt lat="45.31597" lon="5.88186">
        <ele>1051.530412</ele>
        <time>2022-03-22T16:32:41.000Z</time>
      </trkpt>
      <trkpt lat="45.316" lon="5.88194">
        <ele>1049.710364</ele>
        <time>2022-03-22T16:32:43.000Z</time>
      </trkpt>
      <trkpt lat="45.31604" lon="5.88202">
        <ele>1047.646884</ele>
        <time>2022-03-22T16:32:45.000Z</time>
      </trkpt>
      <trkpt lat="45.31612" lon="5.88209">
        <ele>1045.093711</ele>
        <time>2022-03-22T16:32:47.000Z</time>
      </trkpt>
      <trkpt lat="45.31616" lon="5.88211">
        <ele>1043.920644</ele>
        <time>2022-03-22T16:32:48.000Z</time>
      </trkpt>
      <trkpt lat="45.31622" lon="5.88217">
        <ele>1042.123153</ele>
        <time>2022-03-22T16:32:50.000Z</time>
      </trkpt>
      <trkpt lat="45.31625" lon="5.8822">
        <ele>1041.272297</ele>
        <time>2022-03-22T16:32:51.000Z</time>
      </trkpt>
      <trkpt lat="45.31632" lon="5.88232">
        <ele>1038.800173</ele>
        <time>2022-03-22T16:32:54.000Z</time>
      </trkpt>
      <trkpt lat="45.31636" lon="5.8824">
        <ele>1037.194281</ele>
        <time>2022-03-22T16:32:56.000Z</time>
      </trkpt>
      <trkpt lat="45.31639" lon="5.88246">
        <ele>1035.993368</ele>
        <time>2022-03-22T16:32:58.000Z</time>
      </trkpt>
      <trkpt lat="45.31642" lon="5.88252">
        <ele>1034.831575</ele>
        <time>2022-03-22T16:33:00.000Z</time>
      </trkpt>
      <trkpt lat="45.31644" lon="5.88261">
        <ele>1033.333603</ele>
        <time>2022-03-22T16:33:02.000Z</time>
      </trkpt>
      <trkpt lat="45.31645" lon="5.88266">
        <ele>1032.540917</ele>
        <time>2022-03-22T16:33:03.000Z</time>
      </trkpt>
      <trkpt lat="45.31647" lon="5.88271">
        <ele>1031.652427</ele>
        <time>2022-03-22T16:33:04.000Z</time>
      </trkpt>
      <trkpt lat="45.31648" lon="5.88276">
        <ele>1030.702667</ele>
        <time>2022-03-22T16:33:05.000Z</time>
      </trkpt>
      <trkpt lat="45.31649" lon="5.88283">
        <ele>1029.651371</ele>
        <time>2022-03-22T16:33:06.000Z</time>
      </trkpt>
      <trkpt lat="45.3165" lon="5.8829">
        <ele>1028.484473</ele>
        <time>2022-03-22T16:33:07.000Z</time>
      </trkpt>
      <trkpt lat="45.3165" lon="5.88298">
        <ele>1027.237984</ele>
        <time>2022-03-22T16:33:08.000Z</time>
      </trkpt>
      <trkpt lat="45.31651" lon="5.88305">
        <ele>1026.16864</ele>
        <time>2022-03-22T16:33:09.000Z</time>
      </trkpt>
      <trkpt lat="45.31651" lon="5.88312">
        <ele>1025.000265</ele>
        <time>2022-03-22T16:33:10.000Z</time>
      </trkpt>
      <trkpt lat="45.31652" lon="5.88319">
        <ele>1023.817653</ele>
        <time>2022-03-22T16:33:11.000Z</time>
      </trkpt>
      <trkpt lat="45.31652" lon="5.88325">
        <ele>1022.906986</ele>
        <time>2022-03-22T16:33:12.000Z</time>
      </trkpt>
      <trkpt lat="45.31652" lon="5.8833">
        <ele>1022.074446</ele>
        <time>2022-03-22T16:33:13.000Z</time>
      </trkpt>
      <trkpt lat="45.31652" lon="5.88337">
        <ele>1021.037008</ele>
        <time>2022-03-22T16:33:14.000Z</time>
      </trkpt>
      <trkpt lat="45.31652" lon="5.88344">
        <ele>1019.886106</ele>
        <time>2022-03-22T16:33:15.000Z</time>
      </trkpt>
      <trkpt lat="45.31653" lon="5.88351">
        <ele>1018.745024</ele>
        <time>2022-03-22T16:33:16.000Z</time>
      </trkpt>
      <trkpt lat="45.31653" lon="5.88358">
        <ele>1017.581884</ele>
        <time>2022-03-22T16:33:17.000Z</time>
      </trkpt>
      <trkpt lat="45.31655" lon="5.88364">
        <ele>1016.587722</ele>
        <time>2022-03-22T16:33:18.000Z</time>
      </trkpt>
      <trkpt lat="45.31657" lon="5.88368">
        <ele>1015.750818</ele>
        <time>2022-03-22T16:33:19.000Z</time>
      </trkpt>
      <trkpt lat="45.31661" lon="5.88376">
        <ele>1014.171443</ele>
        <time>2022-03-22T16:33:21.000Z</time>
      </trkpt>
      <trkpt lat="45.31662" lon="5.88383">
        <ele>1012.988833</ele>
        <time>2022-03-22T16:33:23.000Z</time>
      </trkpt>
      <trkpt lat="45.31662" lon="5.88386">
        <ele>1012.521107</ele>
        <time>2022-03-22T16:33:24.000Z</time>
      </trkpt>
      <trkpt lat="45.31661" lon="5.88389">
        <ele>1011.998038</ele>
        <time>2022-03-22T16:33:25.000Z</time>
      </trkpt>
      <trkpt lat="45.31661" lon="5.884">
        <ele>1010.28931</ele>
        <time>2022-03-22T16:33:27.000Z</time>
      </trkpt>
      <trkpt lat="45.3166" lon="5.88412">
        <ele>1008.35375</ele>
        <time>2022-03-22T16:33:29.000Z</time>
      </trkpt>
      <trkpt lat="45.31662" lon="5.88421">
        <ele>1006.934517</ele>
        <time>2022-03-22T16:33:31.000Z</time>
      </trkpt>
      <trkpt lat="45.31663" lon="5.88428">
        <ele>1005.743231</ele>
        <time>2022-03-22T16:33:33.000Z</time>
      </trkpt>
      <trkpt lat="45.31663" lon="5.88435">
        <ele>1004.736933</ele>
        <time>2022-03-22T16:33:35.000Z</time>
      </trkpt>
      <trkpt lat="45.31661" lon="5.88443">
        <ele>1003.281457</ele>
        <time>2022-03-22T16:33:37.000Z</time>
      </trkpt>
      <trkpt lat="45.31659" lon="5.8845">
        <ele>1002.296951</ele>
        <time>2022-03-22T16:33:39.000Z</time>
      </trkpt>
      <trkpt lat="45.31658" lon="5.88454">
        <ele>1001.866075</ele>
        <time>2022-03-22T16:33:40.000Z</time>
      </trkpt>
      <trkpt lat="45.31656" lon="5.88462">
        <ele>1000.931398</ele>
        <time>2022-03-22T16:33:42.000Z</time>
      </trkpt>
      <trkpt lat="45.31653" lon="5.8847">
        <ele>999.946077</ele>
        <time>2022-03-22T16:33:44.000Z</time>
      </trkpt>
      <trkpt lat="45.31651" lon="5.8848">
        <ele>998.91705</ele>
        <time>2022-03-22T16:33:46.000Z</time>
      </trkpt>
      <trkpt lat="45.31649" lon="5.88486">
        <ele>998.264353</ele>
        <time>2022-03-22T16:33:47.000Z</time>
      </trkpt>
      <trkpt lat="45.31646" lon="5.8849">
        <ele>997.570032</ele>
        <time>2022-03-22T16:33:48.000Z</time>
      </trkpt>
      <trkpt lat="45.31642" lon="5.88493">
        <ele>996.881713</ele>
        <time>2022-03-22T16:33:49.000Z</time>
      </trkpt>
      <trkpt lat="45.31637" lon="5.88495">
        <ele>996.198239</ele>
        <time>2022-03-22T16:33:50.000Z</time>
      </trkpt>
      <trkpt lat="45.31633" lon="5.88496">
        <ele>995.474042</ele>
        <time>2022-03-22T16:33:51.000Z</time>
      </trkpt>
      <trkpt lat="45.31628" lon="5.88497">
        <ele>994.78088</ele>
        <time>2022-03-22T16:33:52.000Z</time>
      </trkpt>
      <trkpt lat="45.31624" lon="5.88499">
        <ele>994.16437</ele>
        <time>2022-03-22T16:33:53.000Z</time>
      </trkpt>
      <trkpt lat="45.31623" lon="5.88507">
        <ele>993.32621</ele>
        <time>2022-03-22T16:33:55.000Z</time>
      </trkpt>
      <trkpt lat="45.31628" lon="5.88515">
        <ele>992.263782</ele>
        <time>2022-03-22T16:33:57.000Z</time>
      </trkpt>
      <trkpt lat="45.31633" lon="5.88524">
        <ele>991.012108</ele>
        <time>2022-03-22T16:33:59.000Z</time>
      </trkpt>
      <trkpt lat="45.31636" lon="5.88529">
        <ele>990.322146</ele>
        <time>2022-03-22T16:34:00.000Z</time>
      </trkpt>
      <trkpt lat="45.3164" lon="5.88534">
        <ele>989.567392</ele>
        <time>2022-03-22T16:34:01.000Z</time>
      </trkpt>
      <trkpt lat="45.31647" lon="5.88545">
        <ele>987.989866</ele>
        <time>2022-03-22T16:34:03.000Z</time>
      </trkpt>
      <trkpt lat="45.31654" lon="5.88557">
        <ele>986.331617</ele>
        <time>2022-03-22T16:34:05.000Z</time>
      </trkpt>
      <trkpt lat="45.3166" lon="5.88569">
        <ele>984.790967</ele>
        <time>2022-03-22T16:34:07.000Z</time>
      </trkpt>
      <trkpt lat="45.31667" lon="5.88574">
        <ele>983.669656</ele>
        <time>2022-03-22T16:34:09.000Z</time>
      </trkpt>
      <trkpt lat="45.3167" lon="5.88575">
        <ele>983.159713</ele>
        <time>2022-03-22T16:34:12.000Z</time>
      </trkpt>
      <trkpt lat="45.31671" lon="5.88577">
        <ele>982.950231</ele>
        <time>2022-03-22T16:34:13.000Z</time>
      </trkpt>
      <trkpt lat="45.31668" lon="5.88593">
        <ele>981.242398</ele>
        <time>2022-03-22T16:34:18.000Z</time>
      </trkpt>
      <trkpt lat="45.31664" lon="5.88603">
        <ele>979.995197</ele>
        <time>2022-03-22T16:34:20.000Z</time>
      </trkpt>
      <trkpt lat="45.31663" lon="5.88608">
        <ele>979.370613</ele>
        <time>2022-03-22T16:34:21.000Z</time>
      </trkpt>
      <trkpt lat="45.31662" lon="5.88615">
        <ele>978.709116</ele>
        <time>2022-03-22T16:34:22.000Z</time>
      </trkpt>
      <trkpt lat="45.31664" lon="5.88627">
        <ele>977.449194</ele>
        <time>2022-03-22T16:34:24.000Z</time>
      </trkpt>
    </trkseg>
  </trk>
</gpx>